sensor_id;sensor_type;location;lat;lon;timestamp;pressure;altitude;pressure_sealevel;temperature;humidity
26192;BME280;13935;55.672;37.764;2022-09-09T00:00:11;100758.41;;;8.34;90.00
26192;BME280;13935;55.672;37.764;2022-09-09T00:02:25;100763.91;;;8.34;90.08
26192;BME280;13935;55.672;37.764;2022-09-09T00:03:07;100770.53;;;8.45;89.72
26192;BME280;13935;55.672;37.764;2022-09-09T00:07:41;100771.41;;;8.49;89.53
26192;BME280;13935;55.672;37.764;2022-09-09T00:09:13;100776.94;;;8.49;88.52
26192;BME280;13935;55.672;37.764;2022-09-09T00:10:28;100774.75;;;8.54;88.99
26192;BME280;13935;55.672;37.764;2022-09-09T00:13:19;100781.97;;;8.58;88.54
26192;BME280;13935;55.672;37.764;2022-09-09T00:16:19;100777.84;;;8.52;88.75
26192;BME280;13935;55.672;37.764;2022-09-09T00:19:33;100783.94;;;8.46;89.09
26192;BME280;13935;55.672;37.764;2022-09-09T00:21:01;100782.09;;;8.50;89.72
26192;BME280;13935;55.672;37.764;2022-09-09T00:22:18;100778.53;;;8.50;89.10
26192;BME280;13935;55.672;37.764;2022-09-09T00:23:38;100778.75;;;8.56;89.23
26192;BME280;13935;55.672;37.764;2022-09-09T00:24:52;100779.63;;;8.60;88.85
26192;BME280;13935;55.672;37.764;2022-09-09T00:28:50;100781.16;;;8.58;89.30
26192;BME280;13935;55.672;37.764;2022-09-09T00:30:16;100785.63;;;8.62;89.34
26192;BME280;13935;55.672;37.764;2022-09-09T00:31:29;100780.56;;;8.64;88.79
26192;BME280;13935;55.672;37.764;2022-09-09T00:32:39;100784.75;;;8.47;89.29
26192;BME280;13935;55.672;37.764;2022-09-09T00:33:42;100785.66;;;8.51;89.01
26192;BME280;13935;55.672;37.764;2022-09-09T00:34:49;100782.44;;;8.49;89.28
26192;BME280;13935;55.672;37.764;2022-09-09T00:36:00;100781.88;;;8.55;88.73
26192;BME280;13935;55.672;37.764;2022-09-09T00:37:03;100782.44;;;8.49;88.88
26192;BME280;13935;55.672;37.764;2022-09-09T00:38:15;100791.03;;;8.59;88.78
26192;BME280;13935;55.672;37.764;2022-09-09T00:39:31;100782.66;;;8.55;88.83
26192;BME280;13935;55.672;37.764;2022-09-09T00:40:46;100786.56;;;8.54;88.65
26192;BME280;13935;55.672;37.764;2022-09-09T00:42:14;100785.88;;;8.57;88.66
26192;BME280;13935;55.672;37.764;2022-09-09T00:43:29;100783.31;;;8.64;88.78
26192;BME280;13935;55.672;37.764;2022-09-09T00:44:33;100790.41;;;8.65;88.35
26192;BME280;13935;55.672;37.764;2022-09-09T00:45:56;100786.25;;;8.71;88.38
26192;BME280;13935;55.672;37.764;2022-09-09T00:51:31;100793.00;;;8.58;88.99
26192;BME280;13935;55.672;37.764;2022-09-09T00:58:13;100796.81;;;8.54;88.55
26192;BME280;13935;55.672;37.764;2022-09-09T01:01:02;100795.19;;;8.53;88.59
26192;BME280;13935;55.672;37.764;2022-09-09T01:03:38;100805.44;;;8.52;88.17
26192;BME280;13935;55.672;37.764;2022-09-09T01:04:42;100792.91;;;8.55;88.71
26192;BME280;13935;55.672;37.764;2022-09-09T01:07:15;100805.59;;;8.59;88.57
26192;BME280;13935;55.672;37.764;2022-09-09T01:10:47;100805.44;;;8.52;87.99
26192;BME280;13935;55.672;37.764;2022-09-09T01:13:22;100811.13;;;8.59;88.08
26192;BME280;13935;55.672;37.764;2022-09-09T01:15:40;100807.13;;;8.57;88.24
26192;BME280;13935;55.672;37.764;2022-09-09T01:16:48;100804.50;;;8.49;88.74
26192;BME280;13935;55.672;37.764;2022-09-09T01:18:08;100805.59;;;8.59;88.64
26192;BME280;13935;55.672;37.764;2022-09-09T01:19:37;100811.13;;;8.59;88.36
26192;BME280;13935;55.672;37.764;2022-09-09T01:21:08;100804.47;;;8.60;88.55
26192;BME280;13935;55.672;37.764;2022-09-09T01:22:34;100817.19;;;8.65;88.18
26192;BME280;13935;55.672;37.764;2022-09-09T01:27:00;100821.25;;;8.55;88.84
26192;BME280;13935;55.672;37.764;2022-09-09T01:28:08;100820.59;;;8.47;89.12
26192;BME280;13935;55.672;37.764;2022-09-09T01:29:19;100828.84;;;8.47;89.29
26192;BME280;13935;55.672;37.764;2022-09-09T01:30:26;100824.38;;;8.54;89.28
26192;BME280;13935;55.672;37.764;2022-09-09T01:31:38;100824.72;;;8.52;89.72
26192;BME280;13935;55.672;37.764;2022-09-09T01:32:48;100825.16;;;8.54;89.50
26192;BME280;13935;55.672;37.764;2022-09-09T01:33:52;100823.66;;;8.57;89.38
26192;BME280;13935;55.672;37.764;2022-09-09T01:35:01;100827.88;;;8.66;89.65
26192;BME280;13935;55.672;37.764;2022-09-09T01:36:09;100832.75;;;8.57;88.98
26192;BME280;13935;55.672;37.764;2022-09-09T01:37:21;100827.25;;;8.57;89.02
26192;BME280;13935;55.672;37.764;2022-09-09T01:38:24;100834.53;;;8.65;89.01
26192;BME280;13935;55.672;37.764;2022-09-09T01:39:28;100832.75;;;8.57;89.02
26192;BME280;13935;55.672;37.764;2022-09-09T01:40:40;100830.53;;;8.63;88.93
26192;BME280;13935;55.672;37.764;2022-09-09T01:41:48;100831.09;;;8.68;88.68
26192;BME280;13935;55.672;37.764;2022-09-09T01:42:59;100829.50;;;8.67;88.71
26192;BME280;13935;55.672;37.764;2022-09-09T01:44:02;100833.19;;;8.59;88.62
26192;BME280;13935;55.672;37.764;2022-09-09T01:45:08;100832.53;;;8.51;88.62
26192;BME280;13935;55.672;37.764;2022-09-09T01:46:12;100839.41;;;8.56;88.84
26192;BME280;13935;55.672;37.764;2022-09-09T01:47:17;100837.13;;;8.58;88.53
26192;BME280;13935;55.672;37.764;2022-09-09T01:48:48;100834.78;;;8.60;88.92
26192;BME280;13935;55.672;37.764;2022-09-09T01:49:52;100836.41;;;8.61;88.51
26192;BME280;13935;55.672;37.764;2022-09-09T01:50:58;100833.84;;;8.68;88.47
26192;BME280;13935;55.672;37.764;2022-09-09T01:52:03;100832.00;;;8.72;88.35
26192;BME280;13935;55.672;37.764;2022-09-09T01:53:12;100835.22;;;8.74;87.78
26192;BME280;13935;55.672;37.764;2022-09-09T01:54:16;100839.94;;;8.74;87.79
26192;BME280;13935;55.672;37.764;2022-09-09T01:55:28;100834.06;;;8.75;88.31
26192;BME280;13935;55.672;37.764;2022-09-09T01:57:53;100848.09;;;8.70;88.16
26192;BME280;13935;55.672;37.764;2022-09-09T02:00:35;100837.28;;;8.77;88.09
26192;BME280;13935;55.672;37.764;2022-09-09T02:03:00;100842.53;;;8.82;87.36
26192;BME280;13935;55.672;37.764;2022-09-09T02:04:32;100842.09;;;8.80;87.73
26192;BME280;13935;55.672;37.764;2022-09-09T02:07:56;100847.13;;;8.78;87.69
26192;BME280;13935;55.672;37.764;2022-09-09T02:08:47;100851.06;;;8.77;88.15
26192;BME280;13935;55.672;37.764;2022-09-09T02:09:58;100850.66;;;8.63;87.66
26192;BME280;13935;55.672;37.764;2022-09-09T02:12:25;100855.81;;;8.65;87.76
26192;BME280;13935;55.672;37.764;2022-09-09T02:13:35;100855.25;;;8.59;87.64
26192;BME280;13935;55.672;37.764;2022-09-09T02:14:52;100856.06;;;8.60;88.37
26192;BME280;13935;55.672;37.764;2022-09-09T02:16:07;100854.00;;;8.57;88.93
26192;BME280;13935;55.672;37.764;2022-09-09T02:17:11;100856.19;;;8.63;88.54
26192;BME280;13935;55.672;37.764;2022-09-09T02:19:03;100848.94;;;8.59;88.71
26192;BME280;13935;55.672;37.764;2022-09-09T02:20:23;100856.44;;;8.58;88.70
26192;BME280;13935;55.672;37.764;2022-09-09T02:21:34;100856.84;;;8.60;88.85
26192;BME280;13935;55.672;37.764;2022-09-09T02:22:39;100857.94;;;8.44;89.24
26192;BME280;13935;55.672;37.764;2022-09-09T02:23:47;100861.25;;;8.50;89.12
26192;BME280;13935;55.672;37.764;2022-09-09T02:24:57;100862.31;;;8.45;89.47
26192;BME280;13935;55.672;37.764;2022-09-09T02:26:04;100857.81;;;8.41;90.03
26192;BME280;13935;55.672;37.764;2022-09-09T02:27:10;100855.06;;;8.41;90.37
26192;BME280;13935;55.672;37.764;2022-09-09T02:28:15;100855.19;;;8.32;90.64
26192;BME280;13935;55.672;37.764;2022-09-09T02:29:23;100861.66;;;8.24;90.91
26192;BME280;13935;55.672;37.764;2022-09-09T02:30:30;100860.59;;;8.29;91.35
26192;BME280;13935;55.672;37.764;2022-09-09T02:31:35;100865.22;;;8.25;91.26
26192;BME280;13935;55.672;37.764;2022-09-09T02:32:45;100863.84;;;8.19;91.99
26192;BME280;13935;55.672;37.764;2022-09-09T02:33:58;100866.59;;;8.19;91.75
26192;BME280;13935;55.672;37.764;2022-09-09T02:35:09;100861.78;;;8.16;92.00
26192;BME280;13935;55.672;37.764;2022-09-09T02:36:15;100860.63;;;8.17;91.68
26192;BME280;13935;55.672;37.764;2022-09-09T02:37:20;100860.47;;;8.13;92.13
26192;BME280;13935;55.672;37.764;2022-09-09T02:38:28;100869.91;;;8.00;92.62
26192;BME280;13935;55.672;37.764;2022-09-09T02:39:39;100872.34;;;8.02;92.50
26192;BME280;13935;55.672;37.764;2022-09-09T02:40:49;100869.47;;;7.98;93.25
26192;BME280;13935;55.672;37.764;2022-09-09T02:41:51;100873.38;;;7.97;93.55
26192;BME280;13935;55.672;37.764;2022-09-09T02:43:04;100869.78;;;7.97;93.29
26192;BME280;13935;55.672;37.764;2022-09-09T02:44:14;100877.13;;;8.05;93.44
26192;BME280;13935;55.672;37.764;2022-09-09T02:45:27;100874.16;;;8.10;93.25
26192;BME280;13935;55.672;37.764;2022-09-09T02:51:16;100887.03;;;7.94;94.03
26192;BME280;13935;55.672;37.764;2022-09-09T02:52:27;100889.31;;;7.92;94.42
26192;BME280;13935;55.672;37.764;2022-09-09T02:54:39;100896.91;;;8.07;93.91
26192;BME280;13935;55.672;37.764;2022-09-09T02:55:55;100891.38;;;8.07;93.61
26192;BME280;13935;55.672;37.764;2022-09-09T02:57:13;100897.72;;;8.19;93.54
26192;BME280;13935;55.672;37.764;2022-09-09T02:58:21;100897.13;;;8.14;93.34
26192;BME280;13935;55.672;37.764;2022-09-09T02:59:31;100895.06;;;8.23;93.22
26192;BME280;13935;55.672;37.764;2022-09-09T03:00:34;100895.66;;;8.28;92.69
26192;BME280;13935;55.672;37.764;2022-09-09T03:01:38;100905.78;;;8.24;93.03
26192;BME280;13935;55.672;37.764;2022-09-09T03:02:43;100901.53;;;8.27;92.81
26192;BME280;13935;55.672;37.764;2022-09-09T03:03:47;100898.53;;;8.32;92.76
26192;BME280;13935;55.672;37.764;2022-09-09T03:04:52;100898.28;;;8.37;92.34
26192;BME280;13935;55.672;37.764;2022-09-09T03:05:55;100897.59;;;8.40;92.52
26192;BME280;13935;55.672;37.764;2022-09-09T03:07:00;100901.03;;;8.37;92.14
26192;BME280;13935;55.672;37.764;2022-09-09T03:08:04;100899.19;;;8.41;91.72
26192;BME280;13935;55.672;37.764;2022-09-09T03:09:07;100893.00;;;8.32;91.38
26192;BME280;13935;55.672;37.764;2022-09-09T03:10:12;100901.53;;;8.27;91.71
26192;BME280;13935;55.672;37.764;2022-09-09T03:11:17;100907.59;;;8.20;92.32
26192;BME280;13935;55.672;37.764;2022-09-09T03:12:19;100897.50;;;8.24;92.49
26192;BME280;13935;55.672;37.764;2022-09-09T03:13:22;100895.75;;;8.32;92.31
26192;BME280;13935;55.672;37.764;2022-09-09T03:14:26;100897.91;;;8.38;92.27
26192;BME280;13935;55.672;37.764;2022-09-09T03:15:29;100901.28;;;8.32;92.19
26192;BME280;13935;55.672;37.764;2022-09-09T03:16:33;100905.75;;;8.36;91.88
26192;BME280;13935;55.672;37.764;2022-09-09T03:17:37;100899.31;;;8.32;91.86
26192;BME280;13935;55.672;37.764;2022-09-09T03:18:42;100909.56;;;8.32;92.27
26192;BME280;13935;55.672;37.764;2022-09-09T03:19:48;100898.06;;;8.18;92.53
26192;BME280;13935;55.672;37.764;2022-09-09T03:20:52;100895.06;;;8.23;93.08
26192;BME280;13935;55.672;37.764;2022-09-09T03:21:57;100900.59;;;8.23;92.75
26192;BME280;13935;55.672;37.764;2022-09-09T03:23:00;100901.19;;;8.16;92.94
26192;BME280;13935;55.672;37.764;2022-09-09T03:24:04;100904.81;;;8.08;92.81
26192;BME280;13935;55.672;37.764;2022-09-09T03:25:07;100907.69;;;8.00;93.64
26192;BME280;13935;55.672;37.764;2022-09-09T03:26:10;100911.69;;;8.02;93.94
26192;BME280;13935;55.672;37.764;2022-09-09T03:27:19;100912.28;;;8.08;93.89
26192;BME280;13935;55.672;37.764;2022-09-09T03:28:22;100909.28;;;8.13;93.72
26192;BME280;13935;55.672;37.764;2022-09-09T03:29:25;100909.78;;;8.27;93.47
26192;BME280;13935;55.672;37.764;2022-09-09T03:30:30;100910.94;;;8.26;93.59
26192;BME280;13935;55.672;37.764;2022-09-09T03:31:35;100909.56;;;8.32;93.10
26192;BME280;13935;55.672;37.764;2022-09-09T03:32:57;100915.31;;;8.27;92.98
26192;BME280;13935;55.672;37.764;2022-09-09T03:34:06;100918.28;;;8.34;92.97
26192;BME280;13935;55.672;37.764;2022-09-09T03:35:09;100916.44;;;8.38;92.61
26192;BME280;13935;55.672;37.764;2022-09-09T03:36:14;100919.06;;;8.34;92.42
26192;BME280;13935;55.672;37.764;2022-09-09T03:37:16;100907.59;;;8.32;93.04
26192;BME280;13935;55.672;37.764;2022-09-09T03:38:20;100915.50;;;8.22;92.74
26192;BME280;13935;55.672;37.764;2022-09-09T03:39:22;100921.13;;;8.25;92.90
26192;BME280;13935;55.672;37.764;2022-09-09T03:40:28;100923.56;;;8.27;92.86
26192;BME280;13935;55.672;37.764;2022-09-09T03:41:30;100917.13;;;8.23;92.70
26192;BME280;13935;55.672;37.764;2022-09-09T03:42:36;100921.38;;;8.32;92.67
26192;BME280;13935;55.672;37.764;2022-09-09T03:43:41;100922.06;;;8.29;92.87
26192;BME280;13935;55.672;37.764;2022-09-09T03:44:47;100919.19;;;8.14;93.08
26192;BME280;13935;55.672;37.764;2022-09-09T03:45:54;100922.84;;;8.06;93.97
26192;BME280;13935;55.672;37.764;2022-09-09T03:47:00;100926.19;;;8.11;93.91
26192;BME280;13935;55.672;37.764;2022-09-09T03:48:02;100927.91;;;8.16;93.83
26192;BME280;13935;55.672;37.764;2022-09-09T03:49:08;100929.53;;;8.17;93.72
26192;BME280;13935;55.672;37.764;2022-09-09T03:50:15;100935.25;;;8.00;94.47
26192;BME280;13935;55.672;37.764;2022-09-09T03:51:20;100925.84;;;8.01;94.81
26192;BME280;13935;55.672;37.764;2022-09-09T03:52:26;100928.13;;;7.99;95.92
26192;BME280;13935;55.672;37.764;2022-09-09T03:53:30;100942.38;;;8.01;96.22
26192;BME280;13935;55.672;37.764;2022-09-09T03:54:32;100937.53;;;7.98;95.59
26192;BME280;13935;55.672;37.764;2022-09-09T03:55:34;100936.84;;;8.01;95.79
26192;BME280;13935;55.672;37.764;2022-09-09T03:56:39;100935.72;;;8.02;95.15
26192;BME280;13935;55.672;37.764;2022-09-09T03:57:46;100937.41;;;8.06;95.11
26192;BME280;13935;55.672;37.764;2022-09-09T03:58:49;100937.31;;;8.03;95.23
26192;BME280;13935;55.672;37.764;2022-09-09T03:59:52;100938.47;;;8.02;95.62
26192;BME280;13935;55.672;37.764;2022-09-09T04:00:55;100944.22;;;8.09;95.31
26192;BME280;13935;55.672;37.764;2022-09-09T04:02:02;100944.31;;;8.12;94.94
26192;BME280;13935;55.672;37.764;2022-09-09T04:03:05;100937.34;;;8.39;94.57
26192;BME280;13935;55.672;37.764;2022-09-09T04:04:07;100943.81;;;9.48;93.23
26192;BME280;13935;55.672;37.764;2022-09-09T04:05:11;100945.16;;;10.62;86.04
26192;BME280;13935;55.672;37.764;2022-09-09T04:06:19;100941.50;;;11.11;79.47
26192;BME280;13935;55.672;37.764;2022-09-09T04:07:23;100938.13;;;12.00;75.37
26192;BME280;13935;55.672;37.764;2022-09-09T04:08:29;100937.13;;;12.85;70.42
26192;BME280;13935;55.672;37.764;2022-09-09T04:09:35;100936.38;;;13.18;65.90
26192;BME280;13935;55.672;37.764;2022-09-09T04:10:37;100940.22;;;13.72;64.04
26192;BME280;13935;55.672;37.764;2022-09-09T04:11:39;100935.50;;;14.66;61.58
26192;BME280;13935;55.672;37.764;2022-09-09T04:12:42;100933.53;;;15.41;57.65
26192;BME280;13935;55.672;37.764;2022-09-09T04:13:50;100935.16;;;15.52;54.89
26192;BME280;13935;55.672;37.764;2022-09-09T04:14:53;100936.78;;;15.64;54.49
26192;BME280;13935;55.672;37.764;2022-09-09T04:15:57;100943.97;;;15.58;54.48
26192;BME280;13935;55.672;37.764;2022-09-09T04:17:01;100949.25;;;16.22;52.24
26192;BME280;13935;55.672;37.764;2022-09-09T04:18:10;100939.69;;;16.47;52.08
26192;BME280;13935;55.672;37.764;2022-09-09T04:19:18;100948.16;;;17.74;49.34
26192;BME280;13935;55.672;37.764;2022-09-09T04:20:21;100946.97;;;17.68;47.53
26192;BME280;13935;55.672;37.764;2022-09-09T04:21:24;100941.44;;;18.19;45.94
26192;BME280;13935;55.672;37.764;2022-09-09T04:22:30;100939.81;;;17.57;46.98
26192;BME280;13935;55.672;37.764;2022-09-09T04:23:35;100950.66;;;18.16;46.24
26192;BME280;13935;55.672;37.764;2022-09-09T04:24:39;100948.06;;;18.42;45.88
26192;BME280;13935;55.672;37.764;2022-09-09T04:25:48;100951.06;;;18.21;45.01
26192;BME280;13935;55.672;37.764;2022-09-09T04:26:50;100947.81;;;19.47;44.08
26192;BME280;13935;55.672;37.764;2022-09-09T04:27:57;100951.44;;;19.07;43.28
26192;BME280;13935;55.672;37.764;2022-09-09T04:29:00;100950.16;;;20.11;40.99
26192;BME280;13935;55.672;37.764;2022-09-09T04:30:06;100949.31;;;19.85;41.54
26192;BME280;13935;55.672;37.764;2022-09-09T04:31:15;100949.22;;;19.92;40.39
26192;BME280;13935;55.672;37.764;2022-09-09T04:32:20;100944.34;;;19.66;40.55
26192;BME280;13935;55.672;37.764;2022-09-09T04:33:24;100954.75;;;20.48;39.86
26192;BME280;13935;55.672;37.764;2022-09-09T04:34:28;100951.13;;;19.98;40.18
26192;BME280;13935;55.672;37.764;2022-09-09T04:35:33;100949.31;;;19.55;40.82
26192;BME280;13935;55.672;37.764;2022-09-09T04:36:36;100954.81;;;19.92;40.58
26192;BME280;13935;55.672;37.764;2022-09-09T04:37:39;100949.59;;;19.64;40.39
26192;BME280;13935;55.672;37.764;2022-09-09T04:38:42;100957.97;;;19.97;39.95
26192;BME280;13935;55.672;37.764;2022-09-09T04:39:46;100949.16;;;20.71;39.02
26192;BME280;13935;55.672;37.764;2022-09-09T04:40:50;100955.09;;;19.41;40.25
26192;BME280;13935;55.672;37.764;2022-09-09T04:41:53;100945.78;;;19.47;40.31
26192;BME280;13935;55.672;37.764;2022-09-09T04:43:00;100945.31;;;19.56;40.23
26192;BME280;13935;55.672;37.764;2022-09-09T04:44:03;100957.28;;;19.60;40.38
26192;BME280;13935;55.672;37.764;2022-09-09T04:45:07;100953.25;;;20.17;39.45
26192;BME280;13935;55.672;37.764;2022-09-09T04:46:09;100960.09;;;20.42;38.79
26192;BME280;13935;55.672;37.764;2022-09-09T04:47:11;100950.88;;;21.30;37.41
26192;BME280;13935;55.672;37.764;2022-09-09T04:48:14;100954.28;;;21.79;37.01
26192;BME280;13935;55.672;37.764;2022-09-09T04:49:16;100953.31;;;21.47;36.30
26192;BME280;13935;55.672;37.764;2022-09-09T04:50:18;100958.75;;;20.77;37.26
26192;BME280;13935;55.672;37.764;2022-09-09T04:51:21;100963.19;;;20.97;37.52
26192;BME280;13935;55.672;37.764;2022-09-09T04:52:25;100957.81;;;20.83;37.68
26192;BME280;13935;55.672;37.764;2022-09-09T04:53:27;100958.63;;;21.64;36.11
26192;BME280;13935;55.672;37.764;2022-09-09T04:54:30;100960.31;;;21.20;36.41
26192;BME280;13935;55.672;37.764;2022-09-09T04:55:33;100958.59;;;21.84;35.11
26192;BME280;13935;55.672;37.764;2022-09-09T04:56:36;100964.50;;;21.51;35.46
26192;BME280;13935;55.672;37.764;2022-09-09T04:57:39;100959.00;;;21.05;36.46
26192;BME280;13935;55.672;37.764;2022-09-09T04:58:41;100971.03;;;20.86;36.86
26192;BME280;13935;55.672;37.764;2022-09-09T04:59:45;100964.81;;;20.49;37.20
26192;BME280;13935;55.672;37.764;2022-09-09T05:00:49;100974.66;;;20.60;37.34
26192;BME280;13935;55.672;37.764;2022-09-09T05:01:51;100965.03;;;21.26;36.76
26192;BME280;13935;55.672;37.764;2022-09-09T05:02:56;100973.09;;;21.05;36.77
26192;BME280;13935;55.672;37.764;2022-09-09T05:03:59;100967.66;;;21.14;36.23
26192;BME280;13935;55.672;37.764;2022-09-09T05:05:01;100967.69;;;21.52;36.16
26192;BME280;13935;55.672;37.764;2022-09-09T05:06:15;100978.69;;;20.59;36.97
26192;BME280;13935;55.672;37.764;2022-09-09T05:07:19;100979.16;;;22.51;34.23
26192;BME280;13935;55.672;37.764;2022-09-09T05:08:21;100974.75;;;21.22;35.38
26192;BME280;13935;55.672;37.764;2022-09-09T05:09:25;100979.59;;;20.79;36.65
26192;BME280;13935;55.672;37.764;2022-09-09T05:10:27;100981.81;;;22.42;35.23
26192;BME280;13935;55.672;37.764;2022-09-09T05:11:31;100978.63;;;22.40;34.36
26192;BME280;13935;55.672;37.764;2022-09-09T05:12:53;100971.19;;;23.95;32.29
26192;BME280;13935;55.672;37.764;2022-09-09T05:13:58;100980.16;;;23.65;31.87
26192;BME280;13935;55.672;37.764;2022-09-09T05:15:02;100981.91;;;23.87;32.22
26192;BME280;13935;55.672;37.764;2022-09-09T05:16:05;100982.19;;;24.43;30.85
26192;BME280;13935;55.672;37.764;2022-09-09T05:17:08;100985.78;;;24.06;31.51
26192;BME280;13935;55.672;37.764;2022-09-09T05:18:12;100985.19;;;23.29;31.64
26192;BME280;13935;55.672;37.764;2022-09-09T05:19:14;100983.97;;;24.37;31.29
26192;BME280;13935;55.672;37.764;2022-09-09T05:20:22;100981.78;;;23.78;31.48
26192;BME280;13935;55.672;37.764;2022-09-09T05:21:24;100982.41;;;23.70;31.33
26192;BME280;13935;55.672;37.764;2022-09-09T05:22:30;100982.63;;;24.29;31.06
26192;BME280;13935;55.672;37.764;2022-09-09T05:23:33;100987.94;;;24.02;31.12
26192;BME280;13935;55.672;37.764;2022-09-09T05:24:35;100989.75;;;22.79;31.87
26192;BME280;13935;55.672;37.764;2022-09-09T05:25:39;100988.25;;;21.72;33.62
26192;BME280;13935;55.672;37.764;2022-09-09T05:26:42;100989.66;;;22.83;32.67
26192;BME280;13935;55.672;37.764;2022-09-09T05:27:45;100995.88;;;21.91;33.69
26192;BME280;13935;55.672;37.764;2022-09-09T05:28:48;100994.06;;;22.68;32.77
26192;BME280;13935;55.672;37.764;2022-09-09T05:29:50;100993.19;;;22.39;33.56
26192;BME280;13935;55.672;37.764;2022-09-09T05:31:01;100994.59;;;23.10;32.50
26192;BME280;13935;55.672;37.764;2022-09-09T05:32:08;100998.13;;;23.14;32.11
26192;BME280;13935;55.672;37.764;2022-09-09T05:33:20;100988.69;;;22.89;31.53
26192;BME280;13935;55.672;37.764;2022-09-09T05:34:23;100994.50;;;23.42;31.33
26192;BME280;13935;55.672;37.764;2022-09-09T05:35:25;101000.78;;;23.21;31.59
26192;BME280;13935;55.672;37.764;2022-09-09T05:36:27;100995.75;;;24.10;31.03
26192;BME280;13935;55.672;37.764;2022-09-09T05:37:31;100993.00;;;23.66;30.61
26192;BME280;13935;55.672;37.764;2022-09-09T05:38:35;100998.34;;;24.05;29.99
26192;BME280;13935;55.672;37.764;2022-09-09T05:39:38;100999.88;;;22.93;31.19
26192;BME280;13935;55.672;37.764;2022-09-09T05:41:49;101000.78;;;22.58;32.02
26192;BME280;13935;55.672;37.764;2022-09-09T05:42:51;100991.22;;;22.36;32.30
26192;BME280;13935;55.672;37.764;2022-09-09T05:43:55;100995.31;;;22.51;32.44
26192;BME280;13935;55.672;37.764;2022-09-09T05:45:00;101003.72;;;23.46;31.37
26192;BME280;13935;55.672;37.764;2022-09-09T05:46:08;100992.69;;;24.30;29.92
26192;BME280;13935;55.672;37.764;2022-09-09T05:47:12;101003.28;;;23.03;31.20
26192;BME280;13935;55.672;37.764;2022-09-09T05:48:16;101001.53;;;24.07;30.51
26192;BME280;13935;55.672;37.764;2022-09-09T05:49:18;100993.84;;;24.69;29.79
26192;BME280;13935;55.672;37.764;2022-09-09T05:50:22;100995.47;;;22.44;31.35
26192;BME280;13935;55.672;37.764;2022-09-09T05:51:27;100995.13;;;23.05;31.11
26192;BME280;13935;55.672;37.764;2022-09-09T05:52:33;100995.50;;;22.60;31.41
26192;BME280;13935;55.672;37.764;2022-09-09T05:53:36;100998.06;;;22.19;31.94
26192;BME280;13935;55.672;37.764;2022-09-09T05:54:38;100986.75;;;21.26;33.21
26192;BME280;13935;55.672;37.764;2022-09-09T05:55:40;101000.19;;;21.38;33.14
26192;BME280;13935;55.672;37.764;2022-09-09T05:56:44;100999.81;;;21.58;33.42
26192;BME280;13935;55.672;37.764;2022-09-09T05:57:52;101000.09;;;21.83;33.21
26192;BME280;13935;55.672;37.764;2022-09-09T05:58:55;100990.81;;;21.02;33.43
26192;BME280;13935;55.672;37.764;2022-09-09T05:59:58;101001.56;;;23.50;31.32
26192;BME280;13935;55.672;37.764;2022-09-09T06:01:06;101000.47;;;23.03;30.62
26192;BME280;13935;55.672;37.764;2022-09-09T06:02:09;100998.47;;;23.16;30.61
26192;BME280;13935;55.672;37.764;2022-09-09T06:03:12;101003.59;;;22.74;31.00
26192;BME280;13935;55.672;37.764;2022-09-09T06:04:14;100992.50;;;22.35;31.45
26192;BME280;13935;55.672;37.764;2022-09-09T06:05:17;100996.25;;;21.74;32.19
26192;BME280;13935;55.672;37.764;2022-09-09T06:06:22;101001.50;;;22.46;31.79
26192;BME280;13935;55.672;37.764;2022-09-09T06:07:25;101004.50;;;23.75;30.12
26192;BME280;13935;55.672;37.764;2022-09-09T06:08:28;101008.72;;;23.10;31.21
26192;BME280;13935;55.672;37.764;2022-09-09T06:09:31;101007.47;;;23.11;30.63
26192;BME280;13935;55.672;37.764;2022-09-09T06:10:34;100998.38;;;21.47;32.01
26192;BME280;13935;55.672;37.764;2022-09-09T06:11:38;101008.09;;;21.04;33.19
26192;BME280;13935;55.672;37.764;2022-09-09T06:12:41;101014.19;;;20.76;33.38
26192;BME280;13935;55.672;37.764;2022-09-09T06:13:46;101005.72;;;20.27;33.24
26192;BME280;13935;55.672;37.764;2022-09-09T06:14:51;101013.13;;;20.67;33.04
26192;BME280;13935;55.672;37.764;2022-09-09T06:15:53;101005.72;;;20.53;33.78
26192;BME280;13935;55.672;37.764;2022-09-09T06:16:56;101010.19;;;20.24;34.50
26192;BME280;13935;55.672;37.764;2022-09-09T06:18:03;101019.66;;;22.45;31.74
26192;BME280;13935;55.672;37.764;2022-09-09T06:19:05;101008.16;;;21.81;31.31
26192;BME280;13935;55.672;37.764;2022-09-09T06:20:08;101008.09;;;23.19;29.79
26192;BME280;13935;55.672;37.764;2022-09-09T06:21:22;101017.63;;;22.77;29.53
26192;BME280;13935;55.672;37.764;2022-09-09T06:22:25;101009.47;;;21.57;30.88
26192;BME280;13935;55.672;37.764;2022-09-09T06:23:27;101017.53;;;22.81;29.94
26192;BME280;13935;55.672;37.764;2022-09-09T06:24:32;101017.44;;;23.16;29.11
26192;BME280;13935;55.672;37.764;2022-09-09T06:25:36;101008.72;;;21.92;30.77
26192;BME280;13935;55.672;37.764;2022-09-09T06:26:43;101016.56;;;21.43;31.10
26192;BME280;13935;55.672;37.764;2022-09-09T06:27:52;101023.63;;;22.79;29.95
26192;BME280;13935;55.672;37.764;2022-09-09T06:28:55;101022.34;;;23.72;28.44
26192;BME280;13935;55.672;37.764;2022-09-09T06:29:59;101014.00;;;24.71;27.26
26192;BME280;13935;55.672;37.764;2022-09-09T06:31:06;101012.94;;;25.92;25.81
26192;BME280;13935;55.672;37.764;2022-09-09T06:32:08;101008.31;;;26.67;25.26
26192;BME280;13935;55.672;37.764;2022-09-09T06:33:10;101020.59;;;26.64;24.68
26192;BME280;13935;55.672;37.764;2022-09-09T06:34:13;101016.38;;;25.87;25.50
26192;BME280;13935;55.672;37.764;2022-09-09T06:35:19;101015.31;;;25.04;26.24
26192;BME280;13935;55.672;37.764;2022-09-09T06:36:24;101010.84;;;24.69;25.94